createdAt,value
2019-02-19T00:01:18.798Z,98.50
2019-02-19T00:03:45.713Z,98.80
2019-02-19T00:06:12.725Z,99.00
2019-02-19T00:08:39.525Z,99.30
2019-02-19T00:11:06.527Z,99.70
2019-02-19T00:13:33.424Z,99.60
2019-02-19T00:16:00.369Z,99.80
2019-02-19T00:18:27.376Z,99.80
2019-02-19T00:20:54.167Z,99.90
2019-02-19T00:23:21.081Z,99.80
2019-02-19T00:25:47.984Z,99.80
2019-02-19T00:28:14.984Z,99.90
2019-02-19T00:30:41.889Z,99.70
2019-02-19T00:33:08.897Z,99.80
2019-02-19T00:35:35.893Z,99.90
2019-02-19T00:38:02.889Z,99.90
2019-02-19T00:40:29.944Z,99.90
2019-02-19T00:42:56.888Z,99.90
2019-02-19T00:45:23.887Z,99.90
2019-02-19T00:47:50.788Z,99.90
2019-02-19T00:50:17.585Z,99.90
2019-02-19T00:52:45.288Z,99.90
2019-02-19T00:55:12.311Z,99.90
2019-02-19T00:57:39.105Z,99.90
2019-02-19T01:00:07.433Z,99.90
2019-02-19T01:02:34.345Z,99.80
2019-02-19T01:05:01.333Z,99.90
2019-02-19T01:07:28.249Z,99.90
2019-02-19T01:09:55.252Z,99.70
2019-02-19T01:12:22.276Z,99.80
2019-02-19T01:14:49.257Z,99.90
2019-02-19T01:17:16.247Z,99.90
2019-02-19T01:19:43.258Z,99.90
2019-02-19T01:22:10.240Z,99.90
2019-02-19T01:24:37.191Z,99.90
2019-02-19T01:27:04.079Z,99.90
2019-02-19T01:29:31.083Z,99.90
2019-02-19T01:31:58.080Z,99.90
2019-02-19T01:34:24.898Z,99.90
2019-02-19T01:36:51.707Z,99.90
2019-02-19T01:39:18.717Z,99.90
2019-02-19T01:41:45.618Z,99.90
2019-02-19T01:44:12.425Z,99.90
2019-02-19T01:46:39.212Z,99.90
2019-02-19T01:49:06.210Z,99.90
2019-02-19T01:51:33.006Z,99.90
2019-02-19T01:54:00.009Z,99.90
2019-02-19T01:56:26.944Z,99.90
2019-02-19T01:58:53.837Z,99.90
2019-02-19T02:01:20.827Z,99.90
2019-02-19T02:03:47.777Z,99.90
2019-02-19T02:06:14.560Z,99.90
2019-02-19T02:08:41.469Z,99.90
2019-02-19T02:11:08.470Z,99.90
2019-02-19T02:13:35.305Z,99.90
2019-02-19T02:16:02.283Z,99.70
2019-02-19T02:18:29.091Z,99.60
2019-02-19T02:20:55.997Z,99.60
2019-02-19T02:23:23.024Z,99.90
2019-02-19T02:25:49.806Z,99.90
2019-02-19T02:28:16.605Z,99.90
2019-02-19T02:30:43.414Z,99.90
2019-02-19T02:33:10.318Z,99.90
2019-02-19T02:35:37.213Z,99.90
2019-02-19T02:38:04.076Z,99.90
2019-02-19T02:40:30.930Z,99.90
2019-02-19T02:42:57.901Z,99.90
2019-02-19T02:45:24.692Z,99.90
2019-02-19T02:47:51.594Z,99.90
2019-02-19T02:50:18.386Z,99.90
2019-02-19T02:52:45.204Z,99.90
2019-02-19T02:55:12.217Z,99.90
2019-02-19T02:57:39.112Z,99.90
2019-02-19T03:00:07.653Z,99.90
2019-02-19T03:02:34.565Z,99.90
2019-02-19T03:05:01.685Z,99.90
2019-02-19T03:07:48.239Z,99.90
2019-02-19T03:10:15.141Z,99.90
2019-02-19T03:12:42.057Z,99.90
2019-02-19T03:15:09.564Z,99.90
2019-02-19T03:17:36.553Z,99.90
2019-02-19T03:20:03.733Z,99.90
2019-02-19T03:22:30.505Z,99.90
2019-02-19T03:24:57.299Z,99.90
2019-02-19T03:27:24.205Z,99.90
2019-02-19T03:29:51.096Z,99.90
2019-02-19T03:32:18.246Z,99.90
2019-02-19T03:34:45.224Z,99.90
2019-02-19T03:37:12.037Z,99.90
2019-02-19T03:39:38.944Z,99.90
2019-02-19T03:42:06.241Z,99.90
2019-02-19T03:44:33.029Z,99.90
2019-02-19T03:46:59.811Z,99.80
2019-02-19T03:49:26.639Z,99.70
2019-02-19T03:51:53.474Z,99.70
2019-02-19T03:54:20.376Z,99.50
2019-02-19T03:56:47.246Z,99.40
2019-02-19T03:59:14.154Z,99.40
2019-02-19T04:01:41.361Z,99.40
2019-02-19T04:04:08.470Z,99.20
2019-02-19T04:06:35.280Z,99.00
2019-02-19T04:09:03.953Z,99.10
2019-02-19T04:11:30.964Z,98.90
2019-02-19T04:13:57.975Z,98.80
2019-02-19T04:16:24.781Z,99.00
2019-02-19T04:18:51.763Z,98.90
2019-02-19T04:21:18.673Z,99.00
2019-02-19T04:23:45.481Z,98.90
2019-02-19T04:26:14.011Z,99.00
2019-02-19T04:28:41.188Z,99.00
2019-02-19T04:31:08.087Z,99.00
2019-02-19T04:33:34.880Z,98.60
2019-02-19T04:36:01.681Z,98.70
2019-02-19T04:38:28.580Z,98.60
2019-02-19T04:40:55.470Z,98.50
2019-02-19T04:43:22.284Z,98.30
2019-02-19T04:45:49.206Z,98.20
2019-02-19T04:48:16.111Z,98.00
2019-02-19T04:50:42.909Z,97.90
2019-02-19T04:53:09.707Z,98.00
2019-02-19T04:55:36.501Z,98.10
2019-02-19T04:58:03.480Z,98.10
2019-02-19T05:00:30.389Z,98.10
2019-02-19T05:02:57.285Z,98.20
2019-02-19T05:05:27.129Z,98.40
2019-02-19T05:07:54.040Z,98.50
2019-02-19T05:10:21.052Z,98.60
2019-02-19T05:12:47.861Z,98.70
2019-02-19T05:15:14.692Z,98.80
2019-02-19T05:17:41.491Z,99.00
2019-02-19T05:20:08.525Z,99.00
2019-02-19T05:22:35.443Z,99.10
2019-02-19T05:25:02.724Z,99.30
2019-02-19T05:27:29.621Z,99.20
2019-02-19T05:29:56.506Z,99.20
2019-02-19T05:32:23.524Z,99.00
2019-02-19T05:34:50.316Z,99.00
2019-02-19T05:37:17.134Z,99.10
2019-02-19T05:39:44.033Z,99.40
2019-02-19T05:42:10.933Z,99.10
2019-02-19T05:44:37.818Z,99.30
2019-02-19T05:47:04.735Z,99.40
2019-02-19T05:49:31.624Z,99.30
2019-02-19T05:51:58.453Z,99.40
2019-02-19T05:54:25.259Z,99.40
2019-02-19T05:56:52.177Z,99.40
2019-02-19T05:59:19.072Z,99.30
2019-02-19T06:01:45.957Z,99.40
2019-02-19T06:04:12.752Z,99.10
2019-02-19T06:06:39.563Z,99.10
2019-02-19T06:09:06.370Z,99.10
2019-02-19T06:11:33.261Z,99.20
2019-02-19T06:14:00.043Z,99.20
2019-02-19T06:16:26.846Z,99.10
2019-02-19T06:18:53.651Z,99.10
2019-02-19T06:21:20.522Z,99.20
2019-02-19T06:23:47.411Z,99.00
2019-02-19T06:26:14.427Z,98.90
2019-02-19T06:28:41.317Z,98.90
2019-02-19T06:31:08.117Z,98.80
2019-02-19T06:33:34.930Z,98.70
2019-02-19T06:36:01.725Z,98.70
2019-02-19T06:38:28.528Z,98.80
2019-02-19T06:40:55.440Z,99.00
2019-02-19T06:43:22.363Z,98.80
2019-02-19T06:45:49.220Z,98.50
2019-02-19T06:48:16.120Z,98.40
2019-02-19T06:50:43.013Z,98.10
2019-02-19T06:53:09.940Z,98.00
2019-02-19T06:55:36.737Z,97.70
2019-02-19T06:58:03.655Z,97.30
2019-02-19T07:00:30.422Z,97.00
2019-02-19T07:03:17.792Z,96.60
2019-02-19T07:05:44.697Z,96.40
2019-02-19T07:08:11.665Z,96.20
2019-02-19T07:10:38.473Z,96.10
2019-02-19T07:13:05.516Z,96.20
2019-02-19T07:15:32.415Z,96.20
2019-02-19T07:17:59.333Z,96.20
2019-02-19T07:20:26.141Z,96.30
2019-02-19T07:22:52.963Z,96.20
2019-02-19T07:25:19.857Z,96.10
2019-02-19T07:27:46.688Z,95.90
2019-02-19T07:30:13.710Z,95.60
2019-02-19T07:32:40.534Z,95.10
2019-02-19T07:35:07.566Z,94.60
2019-02-19T07:37:34.499Z,94.20
2019-02-19T07:40:01.414Z,94.10
2019-02-19T07:42:28.241Z,93.60
2019-02-19T07:44:55.053Z,93.40
2019-02-19T07:47:24.611Z,92.90
2019-02-19T07:49:50.716Z,91.80
2019-02-19T07:52:17.540Z,90.90
2019-02-19T07:54:44.482Z,89.80
2019-02-19T07:57:11.378Z,87.60
2019-02-19T07:59:38.297Z,85.50
2019-02-19T08:02:05.300Z,85.00
2019-02-19T08:04:32.233Z,84.00
2019-02-19T08:06:59.237Z,82.30
2019-02-19T08:09:26.181Z,81.50
2019-02-19T08:11:52.977Z,79.80
2019-02-19T08:14:19.887Z,78.10
2019-02-19T08:16:46.711Z,75.40
2019-02-19T08:19:13.910Z,74.80
2019-02-19T08:21:46.189Z,73.60
2019-02-19T08:24:13.292Z,69.60
2019-02-19T08:26:40.068Z,65.90
2019-02-19T08:29:13.517Z,65.10
2019-02-19T08:31:35.899Z,65.20
2019-02-19T08:34:02.955Z,64.00
2019-02-19T08:36:29.925Z,61.80
2019-02-19T08:38:56.943Z,63.80
2019-02-19T08:41:23.949Z,64.30
2019-02-19T08:43:50.847Z,65.20
2019-02-19T08:46:17.746Z,66.00
2019-02-19T08:48:44.663Z,64.00
2019-02-19T08:51:11.460Z,62.60
2019-02-19T08:53:38.392Z,63.00
2019-02-19T08:56:05.193Z,62.00
2019-02-19T08:58:32.020Z,64.50
2019-02-19T09:00:58.931Z,67.80
2019-02-19T09:03:25.749Z,68.60
2019-02-19T09:05:52.653Z,69.20
2019-02-19T09:08:19.477Z,68.80
2019-02-19T09:10:46.397Z,67.40
2019-02-19T09:13:13.402Z,64.80
2019-02-19T09:15:40.332Z,60.70
2019-02-19T09:18:07.239Z,59.60
2019-02-19T09:20:34.049Z,56.60
2019-02-19T09:23:00.856Z,54.40
2019-02-19T09:25:27.778Z,52.90
2019-02-19T09:27:54.575Z,52.80
2019-02-19T09:30:21.483Z,52.90
2019-02-19T09:32:48.277Z,53.30
2019-02-19T09:35:15.294Z,51.50
2019-02-19T09:37:42.097Z,50.00
2019-02-19T09:40:09.184Z,50.10
2019-02-19T09:42:36.159Z,51.00
2019-02-19T09:45:03.679Z,51.10
2019-02-19T09:47:30.473Z,51.20
2019-02-19T09:49:57.273Z,52.60
2019-02-19T09:52:24.085Z,53.00
2019-02-19T09:54:50.976Z,53.10
2019-02-19T09:57:17.876Z,52.90
2019-02-19T09:59:44.678Z,52.20
2019-02-19T10:02:11.675Z,50.70
2019-02-19T10:04:38.509Z,49.80
2019-02-19T10:07:05.619Z,49.80
2019-02-19T10:09:32.640Z,50.40
2019-02-19T10:11:59.799Z,50.80
2019-02-19T10:14:26.749Z,50.30
2019-02-19T10:16:53.592Z,50.70
2019-02-19T10:19:20.499Z,49.80
2019-02-19T10:21:47.401Z,49.30
2019-02-19T10:24:14.209Z,48.80
2019-02-19T10:26:41.003Z,47.50
2019-02-19T10:29:07.785Z,46.80
2019-02-19T10:31:34.580Z,43.90
2019-02-19T10:34:01.369Z,41.20
2019-02-19T10:36:28.281Z,40.60
2019-02-19T10:38:55.105Z,39.80
2019-02-19T10:41:22.126Z,40.50
2019-02-19T10:43:48.935Z,42.30
2019-02-19T10:46:15.805Z,40.60
2019-02-19T10:48:43.745Z,39.80
2019-02-19T10:51:10.704Z,39.20
2019-02-19T10:53:37.496Z,40.00
2019-02-19T10:56:04.417Z,37.90
2019-02-19T10:58:31.317Z,37.90
2019-02-19T11:00:58.256Z,38.60
2019-02-19T11:03:25.247Z,38.60
2019-02-19T11:05:52.049Z,39.20
2019-02-19T11:08:18.945Z,40.20
2019-02-19T11:10:45.753Z,42.50
2019-02-19T11:13:12.643Z,45.30
2019-02-19T11:15:39.433Z,47.00
2019-02-19T11:18:06.325Z,48.40
2019-02-19T11:20:33.128Z,50.50
2019-02-19T11:22:59.929Z,53.20
2019-02-19T11:25:26.828Z,52.90
2019-02-19T11:27:53.715Z,53.80
2019-02-19T11:30:20.785Z,55.10
2019-02-19T11:32:47.928Z,55.10
2019-02-19T11:35:14.829Z,55.20
2019-02-19T11:37:41.621Z,56.00
2019-02-19T11:40:09.636Z,56.30
2019-02-19T11:42:36.451Z,57.50
2019-02-19T11:45:03.920Z,58.60
2019-02-19T11:47:30.715Z,60.50
2019-02-19T11:49:57.527Z,62.40
2019-02-19T11:52:24.428Z,64.30
2019-02-19T11:54:51.322Z,64.70
2019-02-19T11:57:18.252Z,65.00
2019-02-19T11:59:45.043Z,65.50
2019-02-19T12:02:14.522Z,64.30
2019-02-19T12:04:41.411Z,65.60
2019-02-19T12:07:08.307Z,65.80
2019-02-19T12:09:35.103Z,67.30
2019-02-19T12:12:02.041Z,67.60
2019-02-19T12:14:28.826Z,68.60
2019-02-19T12:16:55.625Z,69.00
2019-02-19T12:19:22.527Z,68.00
2019-02-19T12:21:49.334Z,69.00
2019-02-19T12:24:16.124Z,68.50
2019-02-19T12:26:43.032Z,65.40
2019-02-19T12:29:09.912Z,64.70
2019-02-19T12:31:36.801Z,62.90
2019-02-19T12:34:03.784Z,61.60
2019-02-19T12:36:30.585Z,62.60
2019-02-19T12:38:57.411Z,63.60
2019-02-19T12:41:24.221Z,64.60
2019-02-19T12:43:51.123Z,65.40
2019-02-19T12:46:18.117Z,65.00
2019-02-19T12:48:45.009Z,64.60
2019-02-19T12:51:11.916Z,64.90
2019-02-19T12:53:38.843Z,65.80
2019-02-19T12:56:05.744Z,67.90
2019-02-19T12:58:32.653Z,69.60
2019-02-19T13:00:59.441Z,70.90
2019-02-19T13:03:26.237Z,71.70
2019-02-19T13:05:53.093Z,74.30
2019-02-19T13:08:20.056Z,75.60
2019-02-19T13:10:46.897Z,76.50
2019-02-19T13:13:13.720Z,77.60
2019-02-19T13:15:40.523Z,79.30
2019-02-19T13:18:07.429Z,79.90
2019-02-19T13:20:34.456Z,81.50
2019-02-19T13:23:01.282Z,81.80
2019-02-19T13:25:28.261Z,82.50
2019-02-19T13:27:55.274Z,81.70
2019-02-19T13:30:23.089Z,81.00
2019-02-19T13:32:50.161Z,81.70
2019-02-19T13:35:17.162Z,82.40
2019-02-19T13:37:44.167Z,82.10
2019-02-19T13:40:11.672Z,82.30
2019-02-19T13:42:38.581Z,81.90
2019-02-19T13:45:07.066Z,83.80
2019-02-19T13:47:34.159Z,85.00
2019-02-19T13:50:01.142Z,84.70
2019-02-19T13:52:43.005Z,85.30
2019-02-19T13:55:16.863Z,85.70
2019-02-19T13:57:43.818Z,85.60
2019-02-19T14:00:16.879Z,85.90
2019-02-19T14:02:43.820Z,86.20
2019-02-19T14:05:10.650Z,86.20
2019-02-19T14:07:37.550Z,85.90
2019-02-19T14:10:04.485Z,86.20
2019-02-19T14:12:31.332Z,85.80
2019-02-19T14:15:08.943Z,86.00
2019-02-19T14:17:35.845Z,85.60
2019-02-19T14:20:21.253Z,85.60
2019-02-19T14:23:10.501Z,85.20
2019-02-19T14:25:57.867Z,86.00
2019-02-19T14:28:38.429Z,85.90
2019-02-19T14:31:33.470Z,86.40
2019-02-19T14:34:21.052Z,86.00
2019-02-19T14:37:19.722Z,85.90
2019-02-19T14:40:17.957Z,85.20
2019-02-19T14:42:56.744Z,85.10
2019-02-19T14:45:32.673Z,85.30
2019-02-19T14:48:25.217Z,86.40
2019-02-19T14:51:11.988Z,87.00
2019-02-19T14:53:57.453Z,87.10
2019-02-19T14:56:42.397Z,86.70
2019-02-19T14:59:19.865Z,86.60
2019-02-19T15:02:15.265Z,85.90
2019-02-19T15:05:00.599Z,86.30
2019-02-19T15:07:39.487Z,85.50
2019-02-19T15:10:25.466Z,85.00
2019-02-19T15:13:08.084Z,85.50
2019-02-19T15:15:54.570Z,85.70
2019-02-19T15:18:39.569Z,84.90
2019-02-19T15:21:34.880Z,84.50
2019-02-19T15:24:27.274Z,83.30
2019-02-19T15:27:28.583Z,82.20
2019-02-19T15:30:08.913Z,81.70
2019-02-19T15:32:52.130Z,84.20
2019-02-19T15:35:37.409Z,84.40
2019-02-19T15:38:39.075Z,84.70
2019-02-19T15:41:28.395Z,85.40
2019-02-19T15:44:03.791Z,86.50
2019-02-19T15:46:43.948Z,87.90
2019-02-19T15:49:47.860Z,88.80
2019-02-19T15:52:29.344Z,89.40
2019-02-19T15:55:24.674Z,90.00
2019-02-19T15:58:12.245Z,90.20
2019-02-19T16:01:04.525Z,90.60
2019-02-19T16:03:36.893Z,90.70
2019-02-19T16:06:26.205Z,90.60
2019-02-19T16:09:11.756Z,90.70
2019-02-19T16:12:00.175Z,90.90
2019-02-19T16:14:45.450Z,91.10
2019-02-19T16:17:21.389Z,91.50
2019-02-19T16:19:57.243Z,91.70
2019-02-19T16:23:01.910Z,91.70
2019-02-19T16:25:48.465Z,91.90
2019-02-19T16:28:28.324Z,92.10
2019-02-19T16:31:05.413Z,92.30
2019-02-19T16:34:03.965Z,92.30
2019-02-19T16:36:40.056Z,92.60
2019-02-19T16:39:15.091Z,92.70
2019-02-19T16:42:01.641Z,92.70
2019-02-19T16:44:42.354Z,92.90
2019-02-19T16:47:41.121Z,93.00
2019-02-19T16:50:27.878Z,93.30
2019-02-19T16:52:59.620Z,93.50
2019-02-19T16:55:49.196Z,93.60
2019-02-19T16:58:27.203Z,93.80
2019-02-19T17:01:22.014Z,94.10
2019-02-19T17:04:14.434Z,94.20
2019-02-19T17:07:06.970Z,94.30
2019-02-19T17:09:52.575Z,94.40
2019-02-19T17:12:53.230Z,94.60
2019-02-19T17:15:40.119Z,94.70
2019-02-19T17:18:26.654Z,94.80
2019-02-19T17:20:59.611Z,94.80
2019-02-19T17:23:49.257Z,94.80
2019-02-19T17:26:27.273Z,94.80
2019-02-19T17:29:04.248Z,94.80
2019-02-19T17:31:46.890Z,94.80
2019-02-19T17:34:24.068Z,94.90
2019-02-19T17:37:01.854Z,94.80
2019-02-19T17:39:42.923Z,94.70
2019-02-19T17:42:44.191Z,94.70
2019-02-19T17:45:42.908Z,94.50
2019-02-19T17:48:28.305Z,94.50
2019-02-19T17:51:13.540Z,94.60
2019-02-19T17:53:59.983Z,94.70
2019-02-19T17:56:33.845Z,95.00
2019-02-19T17:59:10.882Z,94.80
2019-02-19T18:01:56.121Z,94.70
2019-02-19T18:04:28.138Z,94.70
2019-02-19T18:07:06.654Z,94.70
2019-02-19T18:09:58.980Z,94.60
2019-02-19T18:12:35.681Z,94.80
2019-02-19T18:15:16.224Z,94.90
2019-02-19T18:17:57.797Z,95.10
2019-02-19T18:20:24.731Z,95.20
2019-02-19T18:22:51.721Z,95.30
2019-02-19T18:25:18.523Z,95.50
2019-02-19T18:27:45.343Z,95.60
2019-02-19T18:30:12.367Z,95.80
2019-02-19T18:32:39.173Z,96.50
2019-02-19T18:35:06.181Z,96.50
2019-02-19T18:37:32.985Z,96.90
2019-02-19T18:39:59.792Z,97.10
2019-02-19T18:42:26.608Z,97.30
2019-02-19T18:44:53.725Z,97.30
2019-02-19T18:47:20.517Z,97.70
2019-02-19T18:49:47.441Z,97.80
2019-02-19T18:52:14.261Z,98.00
2019-02-19T18:54:41.234Z,98.30
2019-02-19T18:57:08.227Z,98.40
2019-02-19T18:59:35.137Z,98.90
2019-02-19T19:02:02.155Z,98.80
2019-02-19T19:04:28.998Z,99.10
2019-02-19T19:06:55.893Z,99.80
2019-02-19T19:09:22.724Z,99.90
2019-02-19T19:11:49.544Z,99.90
2019-02-19T19:14:16.333Z,99.90
2019-02-19T19:16:43.246Z,99.90
2019-02-19T19:19:10.179Z,99.80
2019-02-19T19:21:37.045Z,99.90
2019-02-19T19:24:03.977Z,99.90
2019-02-19T19:26:30.984Z,99.90
2019-02-19T19:28:57.893Z,99.90
2019-02-19T19:31:33.151Z,99.90
2019-02-19T19:33:53.485Z,99.90
2019-02-19T19:36:20.401Z,99.90
2019-02-19T19:38:47.221Z,99.90
2019-02-19T19:41:14.118Z,99.90
2019-02-19T19:43:41.050Z,99.90
2019-02-19T19:46:07.953Z,99.90
2019-02-19T19:48:34.846Z,99.90
2019-02-19T19:51:01.654Z,99.90
2019-02-19T19:53:28.465Z,99.90
2019-02-19T19:55:55.376Z,99.90
2019-02-19T19:58:22.198Z,99.90
2019-02-19T20:00:49.109Z,99.90
2019-02-19T20:03:16.141Z,99.90
2019-02-19T20:05:43.029Z,99.90
2019-02-19T20:08:09.957Z,99.90
2019-02-19T20:10:36.769Z,99.90
2019-02-19T20:13:03.574Z,99.90
2019-02-19T20:15:30.501Z,99.90
2019-02-19T20:17:57.313Z,99.90
2019-02-19T20:20:24.127Z,99.90
2019-02-19T20:22:51.037Z,99.90
2019-02-19T20:25:18.044Z,99.90
2019-02-19T20:27:44.953Z,99.90
2019-02-19T20:30:11.965Z,99.90
2019-02-19T20:32:38.857Z,99.90
2019-02-19T20:35:06.868Z,99.90
2019-02-19T20:37:33.846Z,99.90
2019-02-19T20:40:00.841Z,99.90
2019-02-19T20:42:27.750Z,99.90
2019-02-19T20:44:54.697Z,99.90
2019-02-19T20:47:21.605Z,99.90
2019-02-19T20:49:48.525Z,99.90
2019-02-19T20:52:15.326Z,99.90
2019-02-19T20:54:42.183Z,99.90
2019-02-19T20:57:09.059Z,99.90
2019-02-19T20:59:35.860Z,99.90
2019-02-19T21:02:02.891Z,99.90
2019-02-19T21:04:29.681Z,99.90
2019-02-19T21:06:56.692Z,99.90
2019-02-19T21:09:23.745Z,99.90
2019-02-19T21:11:50.672Z,99.90
2019-02-19T21:14:17.652Z,99.90
2019-02-19T21:16:44.552Z,99.90
2019-02-19T21:19:11.352Z,99.90
2019-02-19T21:21:44.794Z,99.90
2019-02-19T21:24:06.977Z,99.90
2019-02-19T21:26:33.781Z,99.90
2019-02-19T21:29:00.573Z,99.90
2019-02-19T21:31:27.403Z,99.90
2019-02-19T21:33:54.189Z,99.90
2019-02-19T21:36:21.107Z,99.90
2019-02-19T21:38:47.919Z,99.90
2019-02-19T21:41:14.815Z,99.90
2019-02-19T21:43:41.757Z,99.90
2019-02-19T21:46:08.692Z,99.90
2019-02-19T21:48:35.717Z,99.90
2019-02-19T21:51:02.705Z,99.90
2019-02-19T21:53:29.578Z,99.90
2019-02-19T21:55:56.468Z,99.90
2019-02-19T21:58:23.288Z,99.90
2019-02-19T22:00:50.294Z,99.90
2019-02-19T22:03:17.100Z,99.90
2019-02-19T22:05:43.918Z,99.90
2019-02-19T22:08:10.833Z,99.90
2019-02-19T22:10:37.635Z,99.90
2019-02-19T22:13:04.544Z,99.90
2019-02-19T22:15:31.356Z,99.90
2019-02-19T22:17:58.381Z,99.90
2019-02-19T22:20:35.492Z,99.90
2019-02-19T22:23:02.689Z,99.90
2019-02-19T22:25:29.486Z,99.90
2019-02-19T22:27:56.318Z,99.90
2019-02-19T22:30:23.197Z,99.90
2019-02-19T22:32:50.027Z,99.90
2019-02-19T22:35:17.033Z,99.90
2019-02-19T22:37:44.053Z,99.90
2019-02-19T22:40:11.240Z,99.90
2019-02-19T22:42:38.137Z,99.90
2019-02-19T22:45:05.317Z,99.90
2019-02-19T22:47:32.253Z,99.90
2019-02-19T22:49:59.242Z,99.90
2019-02-19T22:52:26.060Z,99.90
2019-02-19T22:54:59.069Z,99.90
2019-02-19T22:57:25.972Z,99.90
2019-02-19T22:59:52.793Z,99.90
2019-02-19T23:02:22.784Z,99.90
2019-02-19T23:04:49.840Z,99.90
2019-02-19T23:07:16.974Z,99.90
2019-02-19T23:09:43.894Z,99.90
2019-02-19T23:12:10.793Z,99.90
2019-02-19T23:14:37.602Z,99.90
2019-02-19T23:17:04.616Z,99.90
2019-02-19T23:19:31.510Z,99.90
2019-02-19T23:21:58.342Z,99.90
2019-02-19T23:24:25.369Z,99.90
2019-02-19T23:26:52.177Z,99.90
2019-02-19T23:29:19.073Z,99.90
2019-02-19T23:31:45.981Z,99.90
2019-02-19T23:34:12.785Z,99.90
2019-02-19T23:36:46.764Z,99.90
2019-02-19T23:39:13.693Z,99.90
2019-02-19T23:41:40.589Z,99.90
2019-02-19T23:44:07.490Z,99.90
2019-02-19T23:46:34.375Z,99.90
2019-02-19T23:49:01.373Z,99.90
2019-02-19T23:51:28.297Z,99.90
2019-02-19T23:53:55.111Z,99.90
2019-02-19T23:56:21.915Z,99.90
2019-02-19T23:58:48.716Z,99.90
